Time;durP1;ratioP1;P1;durP2;ratioP2;P2;SDS_P1;SDS_P2;PMS_P1;PMS_P2;Temp;Humidity;BMP_temperature;BMP_pressure;BME280_temperature;BME280_humidity;BME280_pressure;Samples;Min_cycle;Max_cycle;Signal;HPM_P1;HPM_P2
2022/06/03 00:00:21;;;;;;;14.82;6.40;;;;;;;;;;5072102;28;20036;-69
2022/06/03 00:03:09;;;;;;;14.20;6.85;;;;;;;;;;5071792;28;20086;-68
2022/06/03 00:06:08;;;;;;;12.95;5.70;;;;;;;;;;5071520;28;20033;-66
2022/06/03 00:08:43;;;;;;;17.33;7.28;;;;;;;;;;5075521;28;20036;-67
2022/06/03 00:11:48;;;;;;;11.40;6.85;;;;;;;;;;5092087;28;20036;-67
2022/06/03 00:14:30;;;;;;;9.52;6.22;;;;;;;;;;5080635;28;20051;-66
2022/06/03 00:17:10;;;;;;;9.77;6.00;;;;;;;;;;5090220;28;20115;-66
2022/06/03 00:19:57;;;;;;;8.95;6.13;;;;;;;;;;5092045;28;20036;-66
2022/06/03 00:22:51;;;;;;;10.18;6.28;;;;;;;;;;5092145;28;20036;-67
2022/06/03 00:25:16;;;;;;;;;;;;;;;;;;5092828;28;20462;-64
2022/06/03 00:27:46;;;;;;;11.55;6.30;;;;;;;;;;5085757;28;19920;-65
2022/06/03 00:30:46;;;;;;;14.90;6.03;;;;;;;;;;5090526;28;20044;-65
2022/06/03 00:33:46;;;;;;;8.77;5.72;;;;;;;;;;5091892;28;20055;-66
2022/06/03 00:36:39;;;;;;;9.02;5.63;;;;;;;;;;5091959;28;20038;-66
2022/06/03 00:39:22;;;;;;;;;;;;;;;;;;5092515;28;20059;-65
2022/06/03 00:42:24;;;;;;;10.05;5.40;;;;;;;;;;5091774;28;20336;-65
2022/06/03 00:45:16;;;;;;;7.57;5.20;;;;;;;;;;5077042;28;20510;-65
2022/06/03 00:47:54;;;;;;;8.52;4.90;;;;;;;;;;5071487;28;20123;-65
2022/06/03 00:50:55;;;;;;;7.57;4.93;;;;;;;;;;5071567;28;20028;-64
2022/06/03 00:53:29;;;;;;;9.55;4.75;;;;;;;;;;5068624;28;20033;-65
2022/06/03 00:56:19;;;;;;;7.88;4.50;;;;;;;;;;5051562;28;20045;-64
2022/06/03 00:58:45;;;;;;;8.32;4.88;;;;;;;;;;5051678;28;20102;-64
2022/06/03 01:01:29;;;;;;;11.63;5.30;;;;;;;;;;5051523;28;20025;-64
2022/06/03 01:04:10;;;;;;;14.40;4.85;;;;;;;;;;5051262;28;20103;-66
2022/06/03 01:07:11;;;;;;;6.78;4.55;;;;;;;;;;5052219;28;20533;-65
2022/06/03 01:09:53;;;;;;;8.18;5.03;;;;;;;;;;5055326;28;20118;-66
2022/06/03 01:12:53;;;;;;;9.70;4.72;;;;;;;;;;5055704;28;20387;-65
2022/06/03 01:15:37;;;;;;;15.23;4.93;;;;;;;;;;5055718;28;20448;-66
2022/06/03 01:18:38;;;;;;;7.88;5.00;;;;;;;;;;5055484;28;20430;-65
2022/06/03 01:21:16;;;;;;;17.27;6.30;;;;;;;;;;5054951;28;20037;-64
2022/06/03 01:24:00;;;;;;;15.85;6.75;;;;;;;;;;5055322;28;20044;-65
2022/06/03 01:26:52;;;;;;;17.52;6.28;;;;;;;;;;5055274;28;20032;-64
2022/06/03 01:29:37;;;;;;;8.63;5.47;;;;;;;;;;5055708;28;20440;-65
2022/06/03 01:32:27;;;;;;;14.15;4.95;;;;;;;;;;5055352;28;20033;-64
2022/06/03 01:34:58;;;;;;;7.65;4.63;;;;;;;;;;5055403;28;20039;-64
2022/06/03 01:37:45;;;;;;;10.93;5.50;;;;;;;;;;5055170;28;20060;-65
2022/06/03 01:40:25;;;;;;;8.95;4.78;;;;;;;;;;5054734;28;20590;-65
2022/06/03 01:42:59;;;;;;;18.50;5.68;;;;;;;;;;5054858;28;20029;-64
2022/06/03 01:45:55;;;;;;;10.02;5.63;;;;;;;;;;5054876;28;20044;-65
2022/06/03 01:48:51;;;;;;;11.68;6.07;;;;;;;;;;5054925;28;20044;-64
2022/06/03 01:52:02;;;;;;;12.27;5.68;;;;;;;;;;5054860;28;20049;-63
2022/06/03 01:54:47;;;;;;;18.35;6.05;;;;;;;;;;5054909;28;20040;-65
2022/06/03 01:57:16;;;;;;;10.85;5.70;;;;;;;;;;5054884;28;20036;-64
2022/06/03 02:00:06;;;;;;;10.15;5.68;;;;;;;;;;5054543;28;20021;-65
2022/06/03 02:02:54;;;;;;;12.18;5.97;;;;;;;;;;5054453;28;20033;-64
2022/06/03 02:05:41;;;;;;;8.93;5.35;;;;;;;;;;5054685;28;20126;-65
2022/06/03 02:08:40;;;;;;;10.27;5.47;;;;;;;;;;5054280;28;20060;-65
2022/06/03 02:11:39;;;;;;;12.73;5.85;;;;;;;;;;5054189;28;20029;-64
2022/06/03 02:14:30;;;;;;;13.27;6.38;;;;;;;;;;5054182;28;20033;-66
2022/06/03 02:17:23;;;;;;;8.55;5.38;;;;;;;;;;5054298;28;20029;-65
2022/06/03 02:20:26;;;;;;;10.63;5.70;;;;;;;;;;5052970;28;20116;-65
2022/06/03 02:22:52;;;;;;;13.70;5.88;;;;;;;;;;5054163;28;20080;-65
2022/06/03 02:25:24;;;;;;;12.52;6.22;;;;;;;;;;5054239;28;20498;-64
2022/06/03 02:28:05;;;;;;;12.45;6.30;;;;;;;;;;5053996;28;20029;-65
2022/06/03 02:30:52;;;;;;;9.95;5.82;;;;;;;;;;5054147;28;20033;-65
2022/06/03 02:33:57;;;;;;;16.70;6.20;;;;;;;;;;5054314;28;20090;-65
2022/06/03 02:37:00;;;;;;;13.90;6.78;;;;;;;;;;5054230;28;20033;-66
2022/06/03 02:39:41;;;;;;;20.80;6.83;;;;;;;;;;5054162;28;20036;-64
2022/06/03 02:42:12;;;;;;;14.93;6.45;;;;;;;;;;5049451;28;20107;-65
2022/06/03 02:45:15;;;;;;;12.73;5.88;;;;;;;;;;5053625;28;20479;-65
2022/06/03 02:48:10;;;;;;;19.73;6.97;;;;;;;;;;5053787;28;20568;-65
2022/06/03 02:50:48;;;;;;;18.05;7.03;;;;;;;;;;5052565;28;20041;-66
2022/06/03 02:53:48;;;;;;;20.98;8.40;;;;;;;;;;5053440;28;20055;-65
2022/06/03 02:56:39;;;;;;;15.77;7.30;;;;;;;;;;5053325;28;20066;-65
2022/06/03 02:59:37;;;;;;;11.57;6.00;;;;;;;;;;5053329;28;20040;-64
2022/06/03 03:02:30;;;;;;;10.57;6.35;;;;;;;;;;5042131;28;20049;-65
2022/06/03 03:04:56;;;;;;;;;;;;;;;;;;5053910;28;20040;-65
2022/06/03 03:07:34;;;;;;;15.73;7.60;;;;;;;;;;5053344;28;19913;-64
2022/06/03 03:10:37;;;;;;;14.10;6.85;;;;;;;;;;5052853;28;20056;-66
2022/06/03 03:13:21;;;;;;;10.68;6.68;;;;;;;;;;5052676;28;20044;-64
2022/06/03 03:15:57;;;;;;;17.50;7.15;;;;;;;;;;5071934;28;20040;-67
2022/06/03 03:18:42;;;;;;;15.27;6.50;;;;;;;;;;5072990;28;20028;-66
2022/06/03 03:21:21;;;;;;;18.02;6.80;;;;;;;;;;5071316;28;20128;-65
2022/06/03 03:24:10;;;;;;;12.60;7.47;;;;;;;;;;5072629;28;20503;-65
2022/06/03 03:26:45;;;;;;;15.45;6.47;;;;;;;;;;5072614;28;20033;-65
2022/06/03 03:29:35;;;;;;;15.63;7.80;;;;;;;;;;5072006;28;20036;-65
2022/06/03 03:32:06;;;;;;;11.80;7.03;;;;;;;;;;5072462;28;20025;-65
2022/06/03 03:35:07;;;;;;;13.57;6.10;;;;;;;;;;5072407;28;20062;-65
2022/06/03 03:37:42;;;;;;;22.15;6.65;;;;;;;;;;5072402;28;20039;-65
2022/06/03 03:40:42;;;;;;;12.98;6.30;;;;;;;;;;5072242;28;20028;-64
2022/06/03 03:43:28;;;;;;;17.38;6.68;;;;;;;;;;5071638;28;20563;-66
2022/06/03 03:46:32;;;;;;;19.40;6.85;;;;;;;;;;5072050;28;20036;-66
2022/06/03 03:49:41;;;;;;;19.42;7.00;;;;;;;;;;5071994;28;20601;-69
2022/06/03 03:52:21;;;;;;;15.50;7.32;;;;;;;;;;5072301;28;20038;-65
2022/06/03 03:55:21;;;;;;;23.73;7.05;;;;;;;;;;5070820;28;20044;-65
2022/06/03 03:58:08;;;;;;;15.73;6.80;;;;;;;;;;5072282;28;20036;-66
2022/06/03 04:00:59;;;;;;;15.70;6.25;;;;;;;;;;5071668;28;20033;-65
2022/06/03 04:03:42;;;;;;;21.67;6.63;;;;;;;;;;5071640;28;20479;-65
2022/06/03 04:06:26;;;;;;;13.90;5.72;;;;;;;;;;5071901;28;20044;-65
2022/06/03 04:09:27;;;;;;;13.25;6.72;;;;;;;;;;5072259;28;20040;-64
2022/06/03 04:12:17;;;;;;;16.10;6.05;;;;;;;;;;5072290;28;20121;-64
2022/06/03 04:15:31;;;;;;;22.70;6.72;;;;;;;;;;5071820;28;20043;-66
2022/06/03 04:18:15;;;;;;;11.65;5.85;;;;;;;;;;5071888;28;20032;-64
2022/06/03 04:21:12;;;;;;;16.08;5.50;;;;;;;;;;5070874;28;20414;-64
2022/06/03 04:23:56;;;;;;;14.50;6.15;;;;;;;;;;5070790;28;20494;-65
2022/06/03 04:26:25;;;;;;;21.45;6.95;;;;;;;;;;5070387;28;20471;-64
2022/06/03 04:29:38;;;;;;;21.58;7.50;;;;;;;;;;5070742;28;20359;-68
2022/06/03 04:32:04;;;;;;;32.95;7.40;;;;;;;;;;5070585;28;20029;-68
2022/06/03 04:35:07;;;;;;;21.55;8.20;;;;;;;;;;5070479;28;20048;-68
2022/06/03 04:38:07;;;;;;;29.70;8.20;;;;;;;;;;5070379;28;20403;-68
2022/06/03 04:40:58;;;;;;;16.83;6.70;;;;;;;;;;5062449;28;20117;-66
2022/06/03 04:43:54;;;;;;;14.90;6.65;;;;;;;;;;5062566;28;20033;-68
2022/06/03 04:46:54;;;;;;;12.18;5.65;;;;;;;;;;5061717;28;20029;-67
2022/06/03 04:49:23;;;;;;;17.92;5.97;;;;;;;;;;5051216;28;20120;-68
2022/06/03 04:52:07;;;;;;;19.33;6.60;;;;;;;;;;5067464;28;20020;-68
2022/06/03 04:54:41;;;;;;;15.77;6.13;;;;;;;;;;5071949;28;20036;-68
2022/06/03 04:57:44;;;;;;;17.90;6.05;;;;;;;;;;5070791;28;20111;-67
2022/06/03 05:00:38;;;;;;;12.32;5.80;;;;;;;;;;5068133;28;20025;-68
2022/06/03 05:03:58;;;;;;;12.57;4.90;;;;;;;;;;5063207;28;20036;-67
2022/06/03 05:06:24;;;;;;;15.55;5.55;;;;;;;;;;5071973;28;20029;-70
2022/06/03 05:09:16;;;;;;;10.73;4.53;;;;;;;;;;5071865;28;20029;-68
2022/06/03 05:12:23;;;;;;;23.23;6.00;;;;;;;;;;5051696;28;20067;-70
2022/06/03 05:14:52;;;;;;;24.38;5.50;;;;;;;;;;5061762;28;20069;-67
2022/06/03 05:17:39;;;;;;;14.35;4.95;;;;;;;;;;5071780;28;20032;-67
2022/06/03 05:20:05;;;;;;;11.30;5.15;;;;;;;;;;5070489;28;20118;-68
2022/06/03 05:22:40;;;;;;;18.25;5.05;;;;;;;;;;5071268;28;20060;-67
2022/06/03 05:25:30;;;;;;;11.65;5.72;;;;;;;;;;5071742;28;20101;-68
2022/06/03 05:28:16;;;;;;;14.60;6.63;;;;;;;;;;5071626;28;20063;-67
2022/06/03 05:31:17;;;;;;;10.48;5.60;;;;;;;;;;5071854;28;20044;-68
2022/06/03 05:33:58;;;;;;;13.98;4.97;;;;;;;;;;5071581;28;20082;-68
2022/06/03 05:36:54;;;;;;;13.75;5.97;;;;;;;;;;5071371;28;20177;-67
2022/06/03 05:39:44;;;;;;;24.35;6.15;;;;;;;;;;5071155;28;20032;-67
2022/06/03 05:42:31;;;;;;;19.90;6.30;;;;;;;;;;5071044;28;20104;-68
2022/06/03 05:45:18;;;;;;;15.55;5.28;;;;;;;;;;5071622;28;20459;-68
2022/06/03 05:47:44;;;;;;;17.17;5.25;;;;;;;;;;5051677;28;20395;-69
2022/06/03 05:50:47;;;;;;;13.27;5.90;;;;;;;;;;5051705;28;20022;-68
2022/06/03 05:53:34;;;;;;;15.43;6.63;;;;;;;;;;5052864;28;20041;-68
2022/06/03 05:56:33;;;;;;;13.57;4.60;;;;;;;;;;5055199;28;20029;-69
2022/06/03 05:59:15;;;;;;;12.93;4.03;;;;;;;;;;5055133;28;20029;-68
2022/06/03 06:01:46;;;;;;;14.18;7.63;;;;;;;;;;5054999;28;20471;-71
2022/06/03 06:04:25;;;;;;;16.65;5.40;;;;;;;;;;5054982;28;20120;-71
2022/06/03 06:07:06;;;;;;;9.35;4.05;;;;;;;;;;5054857;28;20036;-72
2022/06/03 06:09:45;;;;;;;11.30;4.38;;;;;;;;;;5054527;28;20039;-70
2022/06/03 06:12:49;;;;;;;11.65;4.63;;;;;;;;;;5054395;28;20031;-72
2022/06/03 06:15:21;;;;;;;11.75;4.20;;;;;;;;;;5031623;28;20049;-70
2022/06/03 06:17:59;;;;;;;10.85;4.35;;;;;;;;;;5054527;28;20033;-70
2022/06/03 06:20:28;;;;;;;7.88;3.63;;;;;;;;;;5063980;28;20123;-71
2022/06/03 06:23:18;;;;;;;8.10;3.80;;;;;;;;;;5073828;28;20450;-71
2022/06/03 06:26:04;;;;;;;14.88;4.20;;;;;;;;;;5074473;28;20048;-71
2022/06/03 06:28:48;;;;;;;10.10;4.10;;;;;;;;;;5074709;28;20032;-70
2022/06/03 06:31:32;;;;;;;11.73;4.30;;;;;;;;;;5074557;28;20116;-71
2022/06/03 06:34:26;;;;;;;15.07;4.10;;;;;;;;;;5073281;28;20129;-69
2022/06/03 06:37:01;;;;;;;11.52;4.30;;;;;;;;;;5054338;28;20033;-70
2022/06/03 06:39:35;;;;;;;14.13;4.55;;;;;;;;;;5053864;28;20134;-69
2022/06/03 06:42:27;;;;;;;9.75;3.80;;;;;;;;;;5053507;28;20103;-70
2022/06/03 06:45:05;;;;;;;11.95;4.30;;;;;;;;;;5054259;28;20468;-70
2022/06/03 06:47:45;;;;;;;9.85;4.30;;;;;;;;;;5059437;28;20414;-68
2022/06/03 06:50:39;;;;;;;15.88;4.25;;;;;;;;;;5074482;28;20029;-69
2022/06/03 06:53:27;;;;;;;11.80;4.60;;;;;;;;;;5073775;28;20162;-72
2022/06/03 06:56:22;;;;;;;11.27;4.05;;;;;;;;;;5073525;28;20035;-69
2022/06/03 06:58:55;;;;;;;11.25;3.80;;;;;;;;;;5073644;28;20491;-70
2022/06/03 07:01:29;;;;;;;6.43;3.63;;;;;;;;;;5073554;28;20028;-71
2022/06/03 07:04:01;;;;;;;11.98;4.07;;;;;;;;;;5072871;28;20459;-70
2022/06/03 07:06:42;;;;;;;6.83;3.00;;;;;;;;;;5073673;28;20521;-70
2022/06/03 07:09:11;;;;;;;5.90;3.67;;;;;;;;;;5073796;28;20071;-74
2022/06/03 07:12:12;;;;;;;11.80;4.43;;;;;;;;;;5073777;28;20367;-73
2022/06/03 07:14:56;;;;;;;10.13;3.22;;;;;;;;;;5073552;28;20029;-70
2022/06/03 07:20:49;;;;;;;8.13;2.90;;;;;;;;;;5073317;28;20048;-75
2022/06/03 07:23:42;;;;;;;8.80;3.22;;;;;;;;;;5073089;28;20063;-72
2022/06/03 07:26:36;;;;;;;9.63;3.08;;;;;;;;;;5073163;28;20413;-76
2022/06/03 07:29:27;;;;;;;;;;;;;;;;;;5073429;28;20407;-72
2022/06/03 07:32:02;;;;;;;9.95;2.67;;;;;;;;;;5069802;28;19962;-70
2022/06/03 07:34:52;;;;;;;6.35;3.03;;;;;;;;;;5073200;28;20059;-72
2022/06/03 07:37:47;;;;;;;7.82;3.08;;;;;;;;;;5072883;28;20135;-71
2022/06/03 07:40:29;;;;;;;6.75;2.80;;;;;;;;;;5051416;28;20041;-73
2022/06/03 07:43:19;;;;;;;6.55;2.60;;;;;;;;;;5072665;28;20048;-70
2022/06/03 07:46:06;;;;;;;9.73;3.63;;;;;;;;;;5072896;28;20032;-70
2022/06/03 07:48:34;;;;;;;5.75;2.50;;;;;;;;;;5072651;28;20522;-69
2022/06/03 07:51:06;;;;;;;10.13;3.13;;;;;;;;;;5072651;28;20024;-70
2022/06/03 07:53:45;;;;;;;7.50;2.78;;;;;;;;;;5072534;28;20032;-70
2022/06/03 07:56:18;;;;;;;13.55;3.10;;;;;;;;;;5072271;28;20138;-69
2022/06/03 07:58:44;;;;;;;;;;;;;;;;;;5072706;28;20028;-70
2022/06/03 08:01:25;;;;;;;11.30;2.65;;;;;;;;;;5072687;28;20647;-70
2022/06/03 08:03:51;;;;;;;6.28;3.00;;;;;;;;;;5072241;28;20068;-70
2022/06/03 08:12:25;;;;;;;9.27;3.10;;;;;;;;;;5072720;28;20029;-70
2022/06/03 08:14:51;;;;;;;6.60;2.83;;;;;;;;;;5072832;28;20433;-70
2022/06/03 08:17:19;;;;;;;13.40;3.05;;;;;;;;;;5071164;28;20025;-68
2022/06/03 08:19:46;;;;;;;7.05;2.78;;;;;;;;;;5072336;28;20399;-71
2022/06/03 08:22:16;;;;;;;10.10;2.90;;;;;;;;;;5071977;28;20115;-73
2022/06/03 08:24:48;;;;;;;5.35;2.75;;;;;;;;;;5071616;28;20363;-71
2022/06/03 08:27:22;;;;;;;8.93;3.10;;;;;;;;;;5067880;28;20115;-71
2022/06/03 08:30:06;;;;;;;7.75;3.15;;;;;;;;;;5065204;28;20191;-70
2022/06/03 08:32:44;;;;;;;8.80;3.47;;;;;;;;;;5072026;28;20035;-70
2022/06/03 08:35:14;;;;;;;5.32;2.90;;;;;;;;;;5071723;28;20029;-71
2022/06/03 08:37:51;;;;;;;7.20;2.72;;;;;;;;;;5060803;28;20128;-70
2022/06/03 08:40:27;;;;;;;8.88;3.15;;;;;;;;;;5051954;28;20036;-71
2022/06/03 08:43:25;;;;;;;7.22;3.03;;;;;;;;;;5051919;28;20480;-72
2022/06/03 08:46:03;;;;;;;5.72;2.88;;;;;;;;;;5052663;28;20040;-72
2022/06/03 08:48:35;;;;;;;9.18;3.88;;;;;;;;;;5052258;28;20498;-71
2022/06/03 08:51:06;;;;;;;4.43;2.83;;;;;;;;;;5052311;28;20037;-70
2022/06/03 08:53:37;;;;;;;7.80;3.00;;;;;;;;;;5052263;28;20037;-70
2022/06/03 08:56:14;;;;;;;14.95;3.42;;;;;;;;;;5052150;28;20112;-71
2022/06/03 08:58:58;;;;;;;5.50;3.42;;;;;;;;;;5052134;28;20105;-71
2022/06/03 09:01:39;;;;;;;7.43;2.83;;;;;;;;;;5052241;28;20464;-70
2022/06/03 09:04:13;;;;;;;7.47;3.10;;;;;;;;;;5052155;28;20041;-71
2022/06/03 09:07:00;;;;;;;4.85;2.72;;;;;;;;;;5052219;28;20412;-69
2022/06/03 09:10:03;;;;;;;5.43;3.05;;;;;;;;;;5051830;28;20044;-70
2022/06/03 09:12:29;;;;;;;10.50;3.10;;;;;;;;;;5051416;28;20029;-70
2022/06/03 09:15:01;;;;;;;5.38;2.63;;;;;;;;;;5051386;28;20028;-71
2022/06/03 09:17:51;;;;;;;10.23;3.13;;;;;;;;;;5051614;28;20033;-72
2022/06/03 09:20:25;;;;;;;8.15;3.20;;;;;;;;;;5051880;28;20131;-70
2022/06/03 09:22:58;;;;;;;6.63;3.33;;;;;;;;;;5051392;28;20045;-70
2022/06/03 09:25:25;;;;;;;8.07;3.33;;;;;;;;;;5051903;28;21067;-70
2022/06/03 09:27:52;;;;;;;6.72;3.13;;;;;;;;;;5053004;28;20044;-72
2022/06/03 09:30:39;;;;;;;6.00;3.00;;;;;;;;;;5054669;28;20433;-71
2022/06/03 09:33:09;;;;;;;8.13;2.90;;;;;;;;;;5055692;28;20052;-70
2022/06/03 09:35:39;;;;;;;4.55;3.10;;;;;;;;;;5055404;28;20205;-70
2022/06/03 09:38:06;;;;;;;13.60;3.17;;;;;;;;;;5055535;28;20029;-71
2022/06/03 09:40:36;;;;;;;9.80;3.00;;;;;;;;;;5055574;28;20533;-70
2022/06/03 09:43:18;;;;;;;9.95;3.00;;;;;;;;;;5055329;28;20029;-70
2022/06/03 09:45:46;;;;;;;9.45;3.15;;;;;;;;;;5055665;28;20033;-70
2022/06/03 09:48:21;;;;;;;5.68;3.10;;;;;;;;;;5055218;28;20105;-70
2022/06/03 09:50:50;;;;;;;6.72;3.20;;;;;;;;;;5055219;28;20083;-71
2022/06/03 09:53:22;;;;;;;4.55;2.97;;;;;;;;;;5055306;28;20055;-70
2022/06/03 09:55:55;;;;;;;9.73;3.10;;;;;;;;;;5055120;28;20033;-70
2022/06/03 09:58:25;;;;;;;6.10;2.95;;;;;;;;;;5069165;28;20037;-70
2022/06/03 10:00:54;;;;;;;10.48;2.50;;;;;;;;;;5075322;28;20337;-70
2022/06/03 10:03:21;;;;;;;6.50;3.10;;;;;;;;;;5074857;28;20364;-71
2022/06/03 10:05:50;;;;;;;7.50;2.90;;;;;;;;;;5074713;28;20158;-70
2022/06/03 10:08:20;;;;;;;6.05;2.75;;;;;;;;;;5074647;28;20032;-71
2022/06/03 10:13:33;;;;;;;5.70;3.17;;;;;;;;;;5074698;28;20036;-71
2022/06/03 10:16:00;;;;;;;8.43;2.72;;;;;;;;;;5074444;28;20151;-72
2022/06/03 10:18:49;;;;;;;6.35;2.80;;;;;;;;;;5074803;28;20025;-71
2022/06/03 10:21:15;;;;;;;7.32;2.80;;;;;;;;;;5073973;28;20041;-70
2022/06/03 10:23:43;;;;;;;5.20;2.65;;;;;;;;;;5073693;28;20044;-69
2022/06/03 10:26:18;;;;;;;5.53;2.60;;;;;;;;;;5074186;28;20504;-70
2022/06/03 10:28:43;;;;;;;10.25;2.63;;;;;;;;;;5074223;28;20031;-70
2022/06/03 10:31:16;;;;;;;6.65;2.60;;;;;;;;;;5074265;28;20379;-69
2022/06/03 10:33:56;;;;;;;5.72;2.30;;;;;;;;;;5074168;28;20400;-69
2022/06/03 10:36:36;;;;;;;5.82;2.20;;;;;;;;;;5074701;28;20029;-70
2022/06/03 10:39:03;;;;;;;5.63;2.40;;;;;;;;;;5073604;28;20040;-70
2022/06/03 10:41:41;;;;;;;5.18;2.28;;;;;;;;;;5074267;28;20028;-70
2022/06/03 10:44:14;;;;;;;7.10;2.47;;;;;;;;;;5074460;28;20044;-70
2022/06/03 10:47:09;;;;;;;;;;;;;;;;;;5074832;28;20078;-70
2022/06/03 10:49:51;;;;;;;7.22;2.47;;;;;;;;;;5065132;28;19920;-70
2022/06/03 11:01:09;;;;;;;6.82;2.50;;;;;;;;;;5074080;28;20479;-70
2022/06/03 11:03:41;;;;;;;5.65;2.25;;;;;;;;;;5073929;28;20123;-71
2022/06/03 11:06:14;;;;;;;9.05;2.60;;;;;;;;;;5074023;28;20072;-70
2022/06/03 11:08:58;;;;;;;6.25;2.28;;;;;;;;;;5074168;28;20411;-70
2022/06/03 11:11:38;;;;;;;8.13;2.17;;;;;;;;;;5073932;28;20111;-72
2022/06/03 11:14:24;;;;;;;3.90;2.22;;;;;;;;;;5070225;28;20048;-70
2022/06/03 11:17:01;;;;;;;8.13;2.47;;;;;;;;;;5064312;28;20174;-70
2022/06/03 11:19:33;;;;;;;4.43;2.50;;;;;;;;;;5071247;28;20029;-70
2022/06/03 11:22:17;;;;;;;7.78;2.60;;;;;;;;;;5070823;28;20028;-70
2022/06/03 11:25:03;;;;;;;6.85;2.40;;;;;;;;;;5073398;28;20066;-69
2022/06/03 11:27:59;;;;;;;10.15;2.90;;;;;;;;;;5066886;28;20029;-70
2022/06/03 11:30:33;;;;;;;4.97;2.17;;;;;;;;;;5063273;28;20033;-69
2022/06/03 11:33:22;;;;;;;5.88;2.42;;;;;;;;;;5061056;28;20086;-69
2022/06/03 11:35:55;;;;;;;6.47;2.55;;;;;;;;;;5069575;28;22033;-70
2022/06/03 11:38:29;;;;;;;6.55;2.50;;;;;;;;;;5072383;28;20028;-68
2022/06/03 11:41:01;;;;;;;4.90;2.78;;;;;;;;;;5066043;28;20117;-70
2022/06/03 11:43:56;;;;;;;4.60;2.20;;;;;;;;;;5062345;28;20036;-69
2022/06/03 11:46:30;;;;;;;3.53;2.13;;;;;;;;;;5071224;28;20069;-70
2022/06/03 11:48:57;;;;;;;5.10;2.35;;;;;;;;;;5071669;28;20033;-70
2022/06/03 11:51:25;;;;;;;7.47;2.45;;;;;;;;;;5072035;28;20063;-70
2022/06/03 11:53:52;;;;;;;7.55;2.47;;;;;;;;;;5070157;28;20020;-69
2022/06/03 11:56:24;;;;;;;5.28;2.13;;;;;;;;;;5071044;28;20036;-70
2022/06/03 11:58:53;;;;;;;4.30;2.17;;;;;;;;;;5069733;28;20040;-72
2022/06/03 12:01:44;;;;;;;11.88;2.50;;;;;;;;;;5065362;28;20039;-71
2022/06/03 12:04:36;;;;;;;5.78;2.20;;;;;;;;;;5072283;28;20064;-71
2022/06/03 12:07:11;;;;;;;6.13;2.17;;;;;;;;;;5065708;28;20098;-68
2022/06/03 12:10:17;;;;;;;4.95;2.00;;;;;;;;;;5070305;28;20472;-70
2022/06/03 12:15:48;;;;;;;4.57;2.30;;;;;;;;;;5071667;28;20048;-69
2022/06/03 12:18:14;;;;;;;7.53;2.45;;;;;;;;;;5071841;28;20360;-68
2022/06/03 12:20:48;;;;;;;4.85;1.95;;;;;;;;;;5068016;28;20044;-70
2022/06/03 12:23:14;;;;;;;5.82;2.20;;;;;;;;;;5063476;28;20068;-70
2022/06/03 12:25:40;;;;;;;4.55;1.90;;;;;;;;;;5055982;28;20032;-69
2022/06/03 12:28:17;;;;;;;3.80;2.25;;;;;;;;;;5061094;28;20028;-70
2022/06/03 12:30:51;;;;;;;3.22;2.10;;;;;;;;;;5063070;28;20036;-70
2022/06/03 12:33:22;;;;;;;4.88;2.17;;;;;;;;;;5098168;28;20044;-70
2022/06/03 12:35:48;;;;;;;5.20;2.25;;;;;;;;;;5065222;28;20035;-70
2022/06/03 12:38:52;;;;;;;7.72;2.28;;;;;;;;;;5071736;28;20028;-69
2022/06/03 12:41:46;;;;;;;8.48;2.88;;;;;;;;;;5071536;28;20024;-72
2022/06/03 12:44:57;;;;;;;5.72;2.15;;;;;;;;;;5063214;28;20386;-69
2022/06/03 12:47:28;;;;;;;5.65;2.45;;;;;;;;;;5053955;28;20041;-70
2022/06/03 12:50:04;;;;;;;6.47;2.42;;;;;;;;;;5064345;28;20395;-70
2022/06/03 12:52:30;;;;;;;5.88;2.30;;;;;;;;;;5060177;28;20035;-69
2022/06/03 12:55:02;;;;;;;3.78;2.08;;;;;;;;;;5058428;28;20055;-69
2022/06/03 12:57:36;;;;;;;4.03;1.73;;;;;;;;;;5059034;28;20112;-71
2022/06/03 13:00:14;;;;;;;3.67;2.20;;;;;;;;;;5065964;28;20300;-70
2022/06/03 13:02:51;;;;;;;4.00;2.03;;;;;;;;;;5061610;28;20545;-71
2022/06/03 13:05:36;;;;;;;6.90;2.10;;;;;;;;;;5071992;28;20483;-72
2022/06/03 13:08:06;;;;;;;6.90;2.47;;;;;;;;;;5072364;28;20032;-72
2022/06/03 13:10:52;;;;;;;8.82;3.00;;;;;;;;;;5071688;28;20028;-69
2022/06/03 13:13:28;;;;;;;5.53;2.03;;;;;;;;;;5071916;28;20093;-70
2022/06/03 13:16:15;;;;;;;4.15;2.00;;;;;;;;;;5071525;28;20693;-71
2022/06/03 13:18:46;;;;;;;5.43;2.35;;;;;;;;;;5064171;28;20040;-70
2022/06/03 13:21:18;;;;;;;7.25;1.95;;;;;;;;;;5072332;28;20045;-70
2022/06/03 13:23:46;;;;;;;6.17;2.30;;;;;;;;;;5072715;28;20052;-72
2022/06/03 13:26:21;;;;;;;4.38;1.85;;;;;;;;;;5073693;28;20374;-70
2022/06/03 13:28:50;;;;;;;7.90;2.00;;;;;;;;;;5074768;28;20040;-69
2022/06/03 13:31:22;;;;;;;7.00;2.20;;;;;;;;;;5073961;28;20486;-70
2022/06/03 13:34:12;;;;;;;8.10;2.20;;;;;;;;;;5074520;28;20714;-70
2022/06/03 13:37:00;;;;;;;3.35;1.50;;;;;;;;;;5072852;28;20105;-71
2022/06/03 13:39:28;;;;;;;5.93;1.70;;;;;;;;;;5053180;28;20055;-69
2022/06/03 13:44:47;;;;;;;4.80;1.77;;;;;;;;;;5075247;28;20037;-69
2022/06/03 13:47:25;;;;;;;5.18;1.60;;;;;;;;;;5075713;28;20059;-69
2022/06/03 13:50:03;;;;;;;3.80;1.58;;;;;;;;;;5075298;28;20112;-70
2022/06/03 13:52:37;;;;;;;3.35;1.50;;;;;;;;;;5075183;28;20036;-69
2022/06/03 13:55:09;;;;;;;5.35;1.83;;;;;;;;;;5075360;28;20115;-68
2022/06/03 13:57:38;;;;;;;4.05;1.50;;;;;;;;;;5075007;28;20052;-69
2022/06/03 14:00:25;;;;;;;5.20;1.70;;;;;;;;;;5075065;28;20028;-69
2022/06/03 14:03:03;;;;;;;6.00;1.70;;;;;;;;;;5059142;28;20040;-69
2022/06/03 14:06:07;;;;;;;4.68;1.65;;;;;;;;;;5054006;28;20037;-70
2022/06/03 14:08:40;;;;;;;6.28;1.73;;;;;;;;;;5012800;28;20038;-70
2022/06/03 14:11:22;;;;;;;5.10;1.92;;;;;;;;;;5048346;28;20049;-73
2022/06/03 14:14:21;;;;;;;4.43;1.60;;;;;;;;;;5054668;28;20120;-74
2022/06/03 14:17:11;;;;;;;4.38;1.67;;;;;;;;;;5054697;28;20079;-73
2022/06/03 14:20:04;;;;;;;5.00;1.73;;;;;;;;;;5057229;28;20037;-73
2022/06/03 14:22:43;;;;;;;3.33;1.60;;;;;;;;;;5058888;28;20051;-73
2022/06/03 14:25:12;;;;;;;5.63;2.03;;;;;;;;;;5054204;28;20060;-69
2022/06/03 14:27:45;;;;;;;3.30;1.80;;;;;;;;;;5053986;28;20109;-73
2022/06/03 14:30:19;;;;;;;4.93;2.03;;;;;;;;;;5086192;28;20143;-69
2022/06/03 14:32:50;;;;;;;5.10;1.80;;;;;;;;;;5054379;28;20061;-69
2022/06/03 14:35:28;;;;;;;4.53;1.80;;;;;;;;;;5054285;28;20040;-69
2022/06/03 14:38:20;;;;;;;4.40;2.03;;;;;;;;;;5059170;28;20064;-70
2022/06/03 14:40:48;;;;;;;4.43;1.80;;;;;;;;;;5071241;28;20041;-69
2022/06/03 14:43:19;;;;;;;4.43;2.00;;;;;;;;;;5071841;28;20032;-70
2022/06/03 14:45:50;;;;;;;3.78;1.73;;;;;;;;;;5072370;28;20032;-69
2022/06/03 14:48:21;;;;;;;4.57;1.77;;;;;;;;;;5072308;28;20035;-70
2022/06/03 14:51:00;;;;;;;6.80;2.07;;;;;;;;;;5072038;28;20036;-68
2022/06/03 14:53:35;;;;;;;5.80;1.92;;;;;;;;;;5072068;28;20085;-68
2022/06/03 14:56:04;;;;;;;4.18;2.00;;;;;;;;;;5072228;28;20020;-71
2022/06/03 14:58:37;;;;;;;5.00;2.00;;;;;;;;;;5071041;28;20031;-71
2022/06/03 15:01:15;;;;;;;;;;;;;;;;;;5061691;28;20055;-70
2022/06/03 15:03:46;;;;;;;5.22;2.08;;;;;;;;;;5071356;28;19976;-72
2022/06/03 15:06:25;;;;;;;4.40;1.90;;;;;;;;;;5070944;28;20439;-73
2022/06/03 15:08:54;;;;;;;5.53;2.40;;;;;;;;;;5070426;28;20047;-72
2022/06/03 15:11:39;;;;;;;4.38;2.03;;;;;;;;;;5072256;28;20055;-70
2022/06/03 15:14:10;;;;;;;5.20;2.00;;;;;;;;;;5067180;28;20179;-72
2022/06/03 15:16:54;;;;;;;4.43;2.30;;;;;;;;;;5065863;28;20466;-70
2022/06/03 15:19:52;;;;;;;4.60;2.03;;;;;;;;;;5060903;28;20062;-71
2022/06/03 15:22:37;;;;;;;4.30;2.10;;;;;;;;;;5066331;28;20040;-74
2022/06/03 15:25:13;;;;;;;3.60;2.10;;;;;;;;;;5067804;28;20472;-72
2022/06/03 15:28:10;;;;;;;3.00;1.80;;;;;;;;;;5067280;28;20029;-68
2022/06/03 15:30:54;;;;;;;4.10;1.60;;;;;;;;;;5070196;28;20048;-72
2022/06/03 15:33:39;;;;;;;5.95;2.10;;;;;;;;;;5071207;28;20039;-70
2022/06/03 15:36:14;;;;;;;4.93;1.80;;;;;;;;;;5072124;28;20086;-74
2022/06/03 15:38:46;;;;;;;2.78;1.90;;;;;;;;;;5070181;28;20161;-69
2022/06/03 15:41:27;;;;;;;3.38;1.75;;;;;;;;;;5070587;28;20036;-73
2022/06/03 15:43:57;;;;;;;5.78;2.20;;;;;;;;;;5071539;28;20116;-69
2022/06/03 15:46:38;;;;;;;4.72;1.85;;;;;;;;;;5071052;28;20058;-71
2022/06/03 15:49:07;;;;;;;5.88;2.30;;;;;;;;;;5071046;28;20024;-76
2022/06/03 15:51:44;;;;;;;6.32;2.30;;;;;;;;;;5068001;28;20024;-74
2022/06/03 15:54:33;;;;;;;4.85;2.00;;;;;;;;;;5071184;28;20372;-74
2022/06/03 15:57:17;;;;;;;4.40;2.25;;;;;;;;;;5069817;28;20029;-76
2022/06/03 15:59:53;;;;;;;5.18;2.15;;;;;;;;;;5070745;28;20098;-75
2022/06/03 16:02:26;;;;;;;5.32;2.20;;;;;;;;;;5072616;28;20024;-73
2022/06/03 16:05:12;;;;;;;5.10;2.33;;;;;;;;;;5072776;28;20040;-68
2022/06/03 16:07:57;;;;;;;6.25;2.10;;;;;;;;;;5071608;28;20323;-76
2022/06/03 16:10:38;;;;;;;4.88;2.47;;;;;;;;;;5072638;28;20031;-73
2022/06/03 16:13:17;;;;;;;5.32;2.30;;;;;;;;;;5071694;28;20040;-70
2022/06/03 16:16:03;;;;;;;6.80;2.40;;;;;;;;;;5072375;28;20031;-75
2022/06/03 16:18:46;;;;;;;8.05;2.28;;;;;;;;;;5067913;28;20028;-71
2022/06/03 16:21:27;;;;;;;5.47;2.25;;;;;;;;;;5072200;28;20048;-70
2022/06/03 16:24:24;;;;;;;6.97;2.58;;;;;;;;;;5072296;28;20134;-73
2022/06/03 16:26:56;;;;;;;9.75;2.63;;;;;;;;;;5070800;28;20039;-69
2022/06/03 16:29:42;;;;;;;5.70;2.43;;;;;;;;;;5071841;28;20035;-69
2022/06/03 16:32:31;;;;;;;5.20;2.30;;;;;;;;;;5072152;28;20039;-70